South Woodstock, CT (06267)

6:03 PM EST on January 27, 2015 (GMT -0500)
Pomfret School | Change Station
CLOSE
Current Station
Personal Weather Station
Location: Pomfret, CT
Elevation: 577 ft
Nearby Weather Stations

Elev 577 ft 41.89 °N, 71.97 °W | Updated 5 seconds ago

Snow
Snow
14.4 °F
Feels Like 8 °F
N
4.0
Wind Variable Wind from NNW
Gusts 14.0 mph

Today
High -- | Low -- °F
--% Chance of Precip.
Yesterday
High -- | Low -- °F
Precip. -- in
7:05 AM 4:56 PM
First Quarter, 58% visible
Pressure 29.62 in
Visibility 4.0 miles
Clouds Mostly Cloudy 4700 ft
Overcast 7000 ft
Windchill 8 °F
Dew Point 12 °F
Humidity 90%
Rainfall 0.00 in
Snow Depth Not available.
UV 0 out of 12
Pollen .10 out of 12
Air Quality Not available.
Flu Activity Not available.
METAR KIJD 272252Z AUTO 34015G23KT 4SM -SN BKN047 OVC070 M07/M12 A2961 RMK AO2 SLP030 P0000 T10721122

More Conditions Fewer Conditions

Pressure 29.62 in
Visibility 4.0 miles
Clouds Mostly Cloudy 4700 ft
Overcast 7000 ft
Windchill 8 °F
Dew Point 12 °F
Humidity 90%
Rainfall 0.00 in
Snow Depth Not available.
UV 0 out of 12
Pollen .10 out of 12
Air Quality Not available.
Flu Activity Not available.
METAR KIJD 272252Z AUTO 34015G23KT 4SM -SN BKN047 OVC070 M07/M12 A2961 RMK AO2 SLP030 P0000 T10721122

More Conditions Fewer Conditions

10-Day Weather Forecast

Almanac

Astronomy

Jan. 27, 2015 Rise Set
Actual Time
Civil Twilight
Nautical Twilight
Astronomical Twilight
Moon
Length of Visible Light
Length of Day
Tomorrow will be .
, % of the Moon is Illuminated

Today's Extremes

State Highs State Lows

Community

WunderPhotos

Upload Photos

1,790,969 photos uploaded!

WunderBlogs® & News

Nearby

Air Quality

  Air Quality AQ Index Pollutant
Not available.

Snow Depth

Station Depth Elevation

Earthquake Activity

City Distance Mag. Time & Date
Minimum magnitude displayed is 2.5.

Coastal Water Temperatures

Place Temperature

Nearby Weather Stations